createdAt,value
2023-04-28T00:00:40.472Z,3.45
2023-04-28T00:05:42.174Z,3.03
2023-04-28T00:10:43.748Z,3.72
2023-04-28T00:15:45.301Z,3.80
2023-04-28T00:20:47.241Z,4.13
2023-04-28T00:25:55.608Z,3.78
2023-04-28T00:30:57.123Z,4.25
2023-04-28T00:36:00.053Z,3.75
2023-04-28T00:41:01.683Z,3.63
2023-04-28T00:46:03.423Z,2.95
2023-04-28T00:51:06.476Z,6.38
2023-04-28T00:56:08.304Z,4.75
2023-04-28T01:01:10.640Z,5.22
2023-04-28T01:06:12.384Z,3.88
2023-04-28T01:11:14.854Z,4.18
2023-04-28T01:16:32.930Z,3.78
2023-04-28T01:21:35.530Z,4.90
2023-04-28T01:26:56.617Z,5.95
2023-04-28T01:32:00.715Z,4.35
2023-04-28T01:37:02.387Z,5.28
2023-04-28T01:42:04.092Z,5.30
2023-04-28T01:47:05.687Z,4.28
2023-04-28T01:52:09.835Z,4.10
2023-04-28T01:57:11.569Z,4.00
2023-04-28T02:02:13.333Z,4.15
2023-04-28T02:07:14.950Z,4.38
2023-04-28T02:12:17.528Z,4.88
2023-04-28T02:17:19.120Z,4.57
2023-04-28T02:22:21.288Z,7.18
2023-04-28T02:27:23.022Z,6.20
2023-04-28T02:32:24.602Z,4.85
2023-04-28T02:37:26.379Z,4.38
2023-04-28T02:42:28.012Z,3.88
2023-04-28T02:47:29.654Z,5.20
2023-04-28T02:52:31.269Z,6.10
2023-04-28T02:57:32.817Z,4.55
2023-04-28T03:02:34.522Z,4.70
2023-04-28T03:07:36.497Z,7.03
2023-04-28T03:12:38.163Z,7.82
2023-04-28T03:17:42.293Z,6.38
2023-04-28T03:22:44.245Z,4.45
2023-04-28T03:27:45.866Z,6.25
2023-04-28T03:32:47.501Z,6.65
2023-04-28T03:37:49.922Z,8.38
2023-04-28T03:42:51.493Z,6.13
2023-04-28T03:48:01.171Z,5.70
2023-04-28T03:53:02.729Z,5.45
2023-04-28T03:58:05.059Z,5.20
2023-04-28T04:03:09.044Z,6.28
2023-04-28T04:08:10.892Z,5.78
2023-04-28T04:13:12.939Z,5.72
2023-04-28T04:18:16.128Z,7.05
2023-04-28T04:23:37.632Z,6.10
2023-04-28T04:28:39.215Z,8.40
2023-04-28T04:33:42.906Z,7.25
2023-04-28T04:38:44.923Z,6.80
2023-04-28T04:43:54.008Z,6.03
2023-04-28T04:48:56.173Z,4.93
2023-04-28T04:53:57.774Z,5.40
2023-04-28T04:58:59.703Z,5.25
2023-04-28T05:04:30.659Z,6.30
2023-04-28T05:09:33.213Z,5.30
2023-04-28T05:14:35.598Z,7.90
2023-04-28T05:19:37.420Z,7.07
2023-04-28T05:24:39.138Z,7.13
2023-04-28T05:29:41.443Z,7.10
2023-04-28T05:34:45.003Z,6.90
2023-04-28T05:39:46.768Z,8.10
2023-04-28T05:44:48.805Z,9.65
2023-04-28T05:49:50.483Z,7.45
2023-04-28T05:54:52.160Z,10.20
2023-04-28T05:59:53.919Z,6.55
2023-04-28T06:04:56.263Z,5.70
2023-04-28T06:09:58.380Z,8.00
2023-04-28T06:15:00.191Z,5.80
2023-04-28T06:20:02.039Z,5.47
2023-04-28T06:25:03.944Z,4.97
2023-04-28T06:30:17.201Z,5.78
2023-04-28T06:35:18.839Z,5.47
2023-04-28T06:40:20.415Z,4.60
2023-04-28T06:45:27.060Z,6.57
2023-04-28T06:50:32.049Z,6.22
2023-04-28T06:55:35.010Z,3.95
2023-04-28T07:00:36.700Z,4.07
2023-04-28T07:05:38.350Z,4.78
2023-04-28T07:10:39.891Z,6.05
2023-04-28T07:15:42.118Z,4.40
2023-04-28T07:20:43.649Z,4.60
2023-04-28T07:25:45.250Z,6.28
2023-04-28T07:30:46.855Z,4.45
2023-04-28T07:35:49.579Z,5.78
2023-04-28T07:45:53.841Z,5.63
2023-04-28T07:50:55.794Z,8.75
2023-04-28T07:55:57.462Z,10.68
2023-04-28T08:00:59.053Z,5.53
2023-04-28T08:06:01.177Z,4.93
2023-04-28T08:11:02.994Z,6.47
2023-04-28T08:16:04.943Z,6.15
2023-04-28T08:21:07.113Z,4.80
2023-04-28T08:26:08.799Z,7.03
2023-04-28T08:31:10.496Z,6.30
2023-04-28T08:36:12.225Z,4.55
2023-04-28T08:41:15.647Z,5.00
2023-04-28T08:46:21.484Z,5.03
2023-04-28T08:51:33.482Z,5.25
2023-04-28T08:56:35.912Z,5.72
2023-04-28T09:01:37.655Z,5.07
2023-04-28T09:06:39.339Z,4.50
2023-04-28T09:11:55.567Z,3.60
2023-04-28T09:16:57.491Z,4.70
2023-04-28T09:21:59.364Z,3.72
2023-04-28T09:27:04.234Z,3.05
2023-04-28T09:32:17.070Z,3.42
2023-04-28T09:37:20.584Z,3.58
2023-04-28T09:42:42.037Z,2.70
2023-04-28T09:47:46.718Z,2.83
2023-04-28T09:52:58.196Z,2.08
2023-04-28T09:58:04.186Z,2.00
2023-04-28T10:03:09.539Z,2.75
2023-04-28T10:08:12.025Z,1.77
2023-04-28T10:13:13.619Z,1.67
2023-04-28T10:18:16.234Z,1.75
2023-04-28T10:23:20.753Z,3.20
2023-04-28T10:28:22.426Z,3.10
2023-04-28T10:33:26.150Z,2.67
2023-04-28T10:38:28.093Z,1.60
2023-04-28T10:43:30.741Z,1.50
2023-04-28T10:48:32.471Z,2.75
2023-04-28T10:53:46.768Z,3.08
2023-04-28T10:58:53.185Z,2.10
2023-04-28T11:04:08.439Z,2.08
2023-04-28T11:09:16.105Z,2.80
2023-04-28T11:14:18.317Z,2.00
2023-04-28T11:19:21.472Z,2.20
2023-04-28T11:24:26.234Z,2.20
2023-04-28T11:29:38.499Z,2.85
2023-04-28T11:34:40.093Z,1.65
2023-04-28T11:39:41.651Z,1.63
2023-04-28T11:44:52.330Z,1.90
2023-04-28T11:49:53.891Z,1.42
2023-04-28T11:55:02.216Z,1.73
2023-04-28T12:00:19.293Z,1.60
2023-04-28T12:05:22.523Z,1.45
2023-04-28T12:10:24.237Z,1.20
2023-04-28T12:15:41.086Z,2.50
2023-04-28T12:20:43.580Z,1.90
2023-04-28T12:25:47.265Z,1.92
2023-04-28T12:30:48.872Z,1.90
2023-04-28T12:35:50.555Z,2.90
2023-04-28T12:40:52.542Z,2.17
2023-04-28T12:45:55.689Z,1.35
2023-04-28T12:50:57.270Z,1.08
2023-04-28T12:55:59.413Z,1.20
2023-04-28T13:01:01.023Z,4.15
2023-04-28T13:06:02.563Z,1.98
2023-04-28T13:11:16.259Z,1.27
2023-04-28T13:16:28.965Z,1.42
2023-04-28T13:21:30.594Z,1.13
2023-04-28T13:26:37.800Z,2.00
2023-04-28T13:31:39.403Z,1.30
2023-04-28T13:36:43.465Z,3.10
2023-04-28T13:41:44.997Z,2.97
2023-04-28T13:46:47.251Z,2.38
2023-04-28T13:51:48.767Z,2.03
2023-04-28T13:56:52.646Z,1.88
2023-04-28T14:01:54.177Z,1.38
2023-04-28T14:06:55.824Z,2.70
2023-04-28T14:11:58.458Z,1.25
2023-04-28T14:17:00.323Z,1.02
2023-04-28T14:22:02.688Z,3.17
2023-04-28T14:27:04.685Z,1.00
2023-04-28T14:32:06.224Z,1.38
2023-04-28T14:37:07.791Z,1.77
2023-04-28T14:42:09.572Z,0.82
2023-04-28T14:47:11.171Z,1.00
2023-04-28T14:52:12.905Z,2.72
2023-04-28T14:57:14.957Z,1.48
2023-04-28T15:02:16.665Z,0.93
2023-04-28T15:07:23.767Z,0.50
2023-04-28T15:12:25.798Z,1.48
2023-04-28T15:17:28.464Z,1.33
2023-04-28T15:22:30.028Z,1.40
2023-04-28T15:27:32.188Z,2.35
2023-04-28T15:32:33.823Z,2.35
2023-04-28T15:37:44.628Z,1.25
2023-04-28T15:42:49.588Z,1.50
2023-04-28T15:47:51.815Z,2.85
2023-04-28T15:52:53.685Z,2.63
2023-04-28T15:57:56.155Z,1.98
2023-04-28T16:02:57.839Z,3.50
2023-04-28T16:07:59.990Z,3.28
2023-04-28T16:13:01.695Z,2.28
2023-04-28T16:18:03.481Z,3.80
2023-04-28T16:23:06.311Z,2.05
2023-04-28T16:28:08.234Z,2.10
2023-04-28T16:33:10.020Z,2.63
2023-04-28T16:38:12.329Z,2.80
2023-04-28T16:43:14.352Z,3.42
2023-04-28T16:48:18.422Z,2.42
2023-04-28T16:53:19.980Z,2.80
2023-04-28T16:58:21.560Z,2.55
2023-04-28T17:03:23.323Z,2.38
2023-04-28T17:08:24.931Z,4.90
2023-04-28T17:13:26.758Z,4.63
2023-04-28T17:18:28.770Z,2.17
2023-04-28T17:23:30.325Z,2.40
2023-04-28T17:28:32.787Z,2.28
2023-04-28T17:33:34.562Z,3.55
2023-04-28T17:38:38.287Z,1.85
2023-04-28T17:43:39.951Z,2.80
2023-04-28T17:48:42.385Z,1.75
2023-04-28T17:53:46.217Z,2.97
2023-04-28T17:58:47.949Z,3.13
2023-04-28T18:03:49.533Z,1.85
2023-04-28T18:08:51.372Z,2.38
2023-04-28T18:13:52.933Z,3.35
2023-04-28T18:18:54.461Z,2.25
2023-04-28T18:23:56.117Z,2.10
2023-04-28T18:28:57.656Z,3.40
2023-04-28T18:33:59.572Z,2.10
2023-04-28T18:39:02.075Z,2.95
2023-04-28T18:44:03.707Z,2.15
2023-04-28T18:49:05.550Z,2.03
2023-04-28T18:54:07.221Z,2.85
2023-04-28T18:59:09.525Z,2.15
2023-04-28T19:04:11.336Z,4.40
2023-04-28T19:09:14.379Z,2.30
2023-04-28T19:14:16.044Z,3.40
2023-04-28T19:19:17.708Z,4.13
2023-04-28T19:24:19.243Z,3.08
2023-04-28T19:29:20.797Z,4.68
2023-04-28T19:34:22.325Z,3.78
2023-04-28T19:39:23.864Z,4.75
2023-04-28T19:44:25.421Z,4.25
2023-04-28T19:49:26.954Z,4.55
2023-04-28T19:54:28.497Z,6.53
2023-04-28T19:59:30.039Z,4.93
2023-04-28T20:04:32.035Z,6.18
2023-04-28T20:09:37.815Z,5.40
2023-04-28T20:14:39.389Z,9.48
2023-04-28T20:19:40.961Z,5.57
2023-04-28T20:24:42.490Z,5.45
2023-04-28T20:29:44.064Z,5.38
2023-04-28T20:34:45.814Z,5.85
2023-04-28T20:39:48.665Z,5.90
2023-04-28T20:44:50.938Z,5.00
2023-04-28T20:49:52.875Z,5.70
2023-04-28T20:54:55.043Z,6.35
2023-04-28T20:59:56.576Z,6.07
2023-04-28T21:04:58.260Z,5.68
2023-04-28T21:09:59.789Z,5.22
2023-04-28T21:15:01.617Z,7.63
2023-04-28T21:20:03.597Z,5.15
2023-04-28T21:25:08.377Z,6.55
2023-04-28T21:30:11.782Z,6.10
2023-04-28T21:35:13.700Z,4.68
2023-04-28T21:40:16.248Z,6.13
2023-04-28T21:45:18.750Z,6.15
2023-04-28T21:50:20.326Z,4.75
2023-04-28T21:55:21.904Z,5.10
2023-04-28T22:00:23.952Z,5.35
2023-04-28T22:05:25.684Z,5.85
2023-04-28T22:10:27.415Z,4.78
2023-04-28T22:15:28.971Z,5.07
2023-04-28T22:20:30.730Z,6.18
2023-04-28T22:25:32.385Z,5.15
2023-04-28T22:30:34.250Z,5.38
2023-04-28T22:35:35.837Z,6.22
2023-04-28T22:40:37.494Z,6.93
2023-04-28T22:45:39.147Z,5.95
2023-04-28T22:50:41.079Z,7.65
2023-04-28T22:55:43.519Z,5.57
2023-04-28T23:00:45.306Z,6.82
2023-04-28T23:05:47.582Z,5.88
2023-04-28T23:10:49.491Z,5.38
2023-04-28T23:15:51.234Z,6.85
2023-04-28T23:20:52.881Z,6.10
2023-04-28T23:25:55.627Z,6.85
2023-04-28T23:30:57.196Z,7.78
2023-04-28T23:36:01.101Z,7.82
2023-04-28T23:41:06.404Z,8.73
2023-04-28T23:46:08.088Z,7.40
2023-04-28T23:51:09.928Z,6.47
2023-04-28T23:56:11.475Z,6.72
